Portada
METAR-TAF:

METAR-TAF

Aeropuertos :

Riohacha, Colombia

Aeropuerto Almirante Padilla

latitud: 11-32N, longitud: 072-56W, altitud: 4 m

Observación

El informe se hizo hace 37 minutos, a las 15:00 UTC
Viento 5 kt del norte-noroeste
Temperatura 32°C
Humedad 67%
Presión 1011 hPa
Visibilidad 10 km o más
Nubes dispersas a una altura de 1500 ft
Cielo nuboso a una altura de 20000 ft

METAR: SKRH 201500Z 34005KT 9999 SCT015 BKN200 32/25 A2985

Hora: 10:37 (15:37 UTC)


TAF: falta

Observaciones y pronósticos meteorológicos de más de 4000 aeropuertos (mensajes METAR y TAF).

Los puntos amarillos y rojos representan las estaciones disponibles.

Ponga el ratón en el punto deseado para ver el nombre de la estación.

Haga clic para ver las observaciones y los pronósticos meteorológicos.

Para cambiar el mapa : haga clic en los botones verdes con una cruz de color negro para hacer un zoom, en el botón verde con un guión para alejar o en las flechas verdes para mapas adyacentes.


METAR-TAF: